Terminal Aerodrome Forecast
Issued by NWS

Home | Current Version | Previous Version | Text Only | Print | Product List | Glossary On
Versions: 1 2 3 4 5 6 7 8 9 10 11 12 13 14 15 16 17 18 19 20 21
190
FTUS45 KABQ 170543 RRA
TAFSAF
TAF
KSAF 170543Z 1706/1806 16010KT P6SM VCSH BKN025 OVC035
      TEMPO 1706/1710 4SM -SNRA BR BKN015
     FM171000 13005KT P6SM OVC030
     FM172000 27005KT P6SM BKN040=

USA.gov is the U.S. government's official web portal to all federal, state and local government web resources and services.